Time;durP1;ratioP1;P1;durP2;ratioP2;P2;SDS_P1;SDS_P2;PMS_P1;PMS_P2;Temp;Humidity;BMP_temperature;BMP_pressure;BME280_temperature;BME280_humidity;BME280_pressure;Samples;Min_cycle;Max_cycle;Signal;HPM_P1;HPM_P2
2021/12/23 00:00:44;;;;;;;;;;;21.70;36.20;;;;;;4987818;28;19937;-63
2021/12/23 00:03:09;;;;;;;;;;;21.60;36.10;;;;;;4971698;28;19919;-63
2021/12/23 00:05:35;;;;;;;;;;;21.70;36.20;;;;;;4954808;29;20299;-62
2021/12/23 00:08:00;;;;;;;;;;;21.70;36.20;;;;;;4956116;29;20079;-62
2021/12/23 00:10:26;;;;;;;;;;;21.70;36.20;;;;;;4957100;29;19910;-63
2021/12/23 00:12:51;;;;;;;;;;;21.70;36.20;;;;;;4954168;29;19915;-63
2021/12/23 00:15:37;;;;;;;;;;;21.70;36.20;;;;;;4956526;29;20291;-63
2021/12/23 00:18:16;;;;;;;;;;;21.60;36.10;;;;;;4957135;28;20360;-62
2021/12/23 00:25:46;;;;;;;;;;;21.70;36.20;;;;;;4962844;28;20299;-63
2021/12/23 00:28:12;;;;;;;;;;;21.60;36.20;;;;;;4955918;29;19919;-63
2021/12/23 00:30:37;;;;;;;;;;;21.70;36.20;;;;;;4945743;29;20360;-63
2021/12/23 00:33:02;;;;;;;;;;;21.70;36.20;;;;;;4956058;29;20383;-63
2021/12/23 00:35:28;;;;;;;;;;;21.60;36.10;;;;;;4936877;29;20430;-62
2021/12/23 00:38:04;;;;;;;;;;;21.60;36.10;;;;;;4954421;29;19918;-62
2021/12/23 00:40:30;;;;;;;;;;;21.60;36.10;;;;;;4956058;28;19954;-62
2021/12/23 00:42:55;;;;;;;;;;;21.70;36.30;;;;;;4956108;28;19915;-63
2021/12/23 00:45:21;;;;;;;;;;;21.60;36.20;;;;;;4942061;29;19953;-62
2021/12/23 00:47:46;;;;;;;;;;;21.60;36.20;;;;;;4968154;28;20280;-62
2021/12/23 00:50:12;;;;;;;;;;;21.60;36.20;;;;;;4946790;29;20001;-62
2021/12/23 00:52:39;;;;;;;;;;;21.60;36.10;;;;;;4956622;29;19946;-62
2021/12/23 00:55:05;;;;;;;;;;;21.60;36.10;;;;;;4982724;28;19958;-62
2021/12/23 00:57:36;;;;;;;;;;;21.60;36.20;;;;;;4956389;28;19917;-62
2021/12/23 01:00:02;;;;;;;;;;;21.60;36.10;;;;;;4954534;28;20009;-62
2021/12/23 01:02:30;;;;;;;;;;;21.60;36.10;;;;;;4955875;28;19915;-62
2021/12/23 01:04:56;;;;;;;;;;;21.60;36.10;;;;;;4985414;28;20053;-63
2021/12/23 01:07:21;;;;;;;;;;;21.60;36.10;;;;;;4944449;29;20005;-63
2021/12/23 01:09:47;;;;;;;;;;;21.60;36.10;;;;;;4955214;29;20374;-63
2021/12/23 01:12:15;;;;;;;;;;;21.60;36.10;;;;;;4948705;29;20382;-63
2021/12/23 01:14:52;;;;;;;;;;;21.60;36.10;;;;;;4954113;29;20432;-62
2021/12/23 01:19:49;;;;;;;;;;;21.60;36.10;;;;;;4972611;28;19974;-63
2021/12/23 01:22:15;;;;;;;;;;;21.60;36.10;;;;;;4960366;28;19965;-63
2021/12/23 01:24:40;;;;;;;;;;;21.60;36.10;;;;;;4986858;28;19965;-63
2021/12/23 01:27:06;;;;;;;;;;;21.60;36.10;;;;;;4952828;29;20286;-62
2021/12/23 01:29:31;;;;;;;;;;;21.60;36.00;;;;;;4939242;29;19970;-63
2021/12/23 01:31:57;;;;;;;;;;;21.60;36.10;;;;;;4975479;28;19915;-63
2021/12/23 01:34:22;;;;;;;;;;;21.60;36.10;;;;;;4967708;28;19911;-63
2021/12/23 01:36:48;;;;;;;;;;;21.70;36.00;;;;;;4941977;29;20318;-62
2021/12/23 01:39:14;;;;;;;;;;;21.70;36.00;;;;;;4970370;28;20306;-62
2021/12/23 01:41:39;;;;;;;;;;;21.70;35.90;;;;;;4953468;29;19986;-63
2021/12/23 01:44:05;;;;;;;;;;;21.70;36.00;;;;;;4955243;29;19911;-63
2021/12/23 01:46:30;;;;;;;;;;;21.70;35.90;;;;;;4954874;29;20418;-63
2021/12/23 01:48:56;;;;;;;;;;;21.70;36.00;;;;;;4939296;29;19922;-63
2021/12/23 01:51:21;;;;;;;;;;;21.70;35.90;;;;;;4947512;29;19914;-63
2021/12/23 01:53:46;;;;;;;;;;;21.70;36.00;;;;;;4986181;28;19915;-63
2021/12/23 01:56:12;;;;;;;;;;;21.70;35.90;;;;;;4949552;29;20279;-63
2021/12/23 01:58:38;;;;;;;;;;;21.70;36.00;;;;;;4955327;29;19911;-63
2021/12/23 02:01:04;;;;;;;;;;;21.70;35.80;;;;;;4954626;29;19965;-63
2021/12/23 02:03:29;;;;;;;;;;;21.70;36.00;;;;;;4955294;28;20005;-63
2021/12/23 02:05:55;;;;;;;;;;;21.60;35.90;;;;;;4945081;29;20042;-62
2021/12/23 02:08:20;;;;;;;;;;;21.60;36.00;;;;;;4949414;29;19982;-64
2021/12/23 02:10:46;;;;;;;;;;;21.60;36.00;;;;;;4957133;28;19944;-63
2021/12/23 02:13:11;;;;;;;;;;;21.60;35.90;;;;;;4936589;29;19918;-63
2021/12/23 02:15:37;;;;;;;;;;;21.60;36.10;;;;;;4943311;28;19921;-63
2021/12/23 02:18:02;;;;;;;;;;;21.60;35.90;;;;;;4940008;29;19915;-63
2021/12/23 02:20:28;;;;;;;;;;;21.60;35.90;;;;;;4953666;29;19921;-63
2021/12/23 02:22:54;;;;;;;;;;;21.60;35.90;;;;;;4984402;28;19922;-63
2021/12/23 02:25:19;;;;;;;;;;;21.60;36.00;;;;;;4954245;29;19918;-63
2021/12/23 02:27:45;;;;;;;;;;;21.60;35.90;;;;;;4954270;28;19925;-63
2021/12/23 02:30:12;;;;;;;;;;;21.60;35.90;;;;;;4951832;29;19922;-63
2021/12/23 02:32:38;;;;;;;;;;;21.60;35.90;;;;;;4985250;28;19911;-63
2021/12/23 02:35:04;;;;;;;;;;;21.60;35.90;;;;;;4953657;29;19918;-62
2021/12/23 02:37:29;;;;;;;;;;;21.60;36.00;;;;;;4954868;28;19911;-62
2021/12/23 02:39:54;;;;;;;;;;;21.60;35.90;;;;;;4940854;29;20272;-63
2021/12/23 02:42:20;;;;;;;;;;;21.60;35.90;;;;;;4969285;28;20334;-63
2021/12/23 02:44:45;;;;;;;;;;;21.60;35.80;;;;;;4952715;29;20327;-63
2021/12/23 02:47:11;;;;;;;;;;;21.50;35.90;;;;;;4940889;29;19925;-62
2021/12/23 02:49:36;;;;;;;;;;;21.50;36.00;;;;;;4952743;29;19925;-62
2021/12/23 02:52:02;;;;;;;;;;;21.40;36.10;;;;;;4948624;29;20291;-63
2021/12/23 02:54:27;;;;;;;;;;;21.40;36.20;;;;;;4953177;29;20299;-62
2021/12/23 02:56:53;;;;;;;;;;;21.40;36.20;;;;;;4954349;29;19914;-63
2021/12/23 02:59:18;;;;;;;;;;;21.40;36.20;;;;;;4935020;29;19911;-63
2021/12/23 03:01:44;;;;;;;;;;;21.40;36.10;;;;;;4964848;28;19922;-63
2021/12/23 03:04:09;;;;;;;;;;;21.50;36.20;;;;;;4935187;29;20001;-63
2021/12/23 03:06:34;;;;;;;;;;;21.50;36.10;;;;;;4945475;29;19934;-62
2021/12/23 03:09:00;;;;;;;;;;;21.50;36.10;;;;;;4949208;29;19922;-62
2021/12/23 03:11:26;;;;;;;;;;;21.50;36.00;;;;;;4937722;28;19915;-62
2021/12/23 03:13:52;;;;;;;;;;;21.60;36.00;;;;;;4950383;29;19921;-62
2021/12/23 03:16:21;;;;;;;;;;;21.60;35.80;;;;;;4950945;29;19973;-62
2021/12/23 03:18:47;;;;;;;;;;;21.60;35.80;;;;;;4978554;28;20386;-62
2021/12/23 03:21:12;;;;;;;;;;;21.60;35.70;;;;;;4952647;29;19981;-62
2021/12/23 03:23:38;;;;;;;;;;;21.60;35.80;;;;;;4949846;29;20009;-61
2021/12/23 03:26:03;;;;;;;;;;;21.60;35.80;;;;;;4935834;29;19915;-62
2021/12/23 03:28:29;;;;;;;;;;;21.70;35.80;;;;;;4987010;28;19954;-62
2021/12/23 03:30:54;;;;;;;;;;;21.70;35.70;;;;;;4957681;29;19958;-62
2021/12/23 03:33:20;;;;;;;;;;;21.70;35.70;;;;;;4941486;29;19930;-62
2021/12/23 03:35:46;;;;;;;;;;;21.70;35.80;;;;;;4950081;29;19921;-63
2021/12/23 03:38:11;;;;;;;;;;;21.70;35.80;;;;;;4983510;28;19922;-63
2021/12/23 03:40:37;;;;;;;;;;;21.60;35.70;;;;;;4971867;28;19958;-63
2021/12/23 03:43:02;;;;;;;;;;;21.70;35.80;;;;;;4972432;28;19914;-63
2021/12/23 03:45:28;;;;;;;;;;;21.70;35.80;;;;;;4956863;29;19914;-62
2021/12/23 03:47:53;;;;;;;;;;;21.70;35.80;;;;;;4957363;29;19918;-62
2021/12/23 03:50:19;;;;;;;;;;;21.70;35.80;;;;;;4955382;29;20298;-62
2021/12/23 03:52:44;;;;;;;;;;;21.70;35.80;;;;;;4973714;28;20283;-63
2021/12/23 03:55:10;;;;;;;;;;;21.60;35.90;;;;;;4945817;29;19924;-63
2021/12/23 03:57:36;;;;;;;;;;;21.60;35.80;;;;;;4957565;28;20016;-63
2021/12/23 04:00:02;;;;;;;;;;;21.60;35.70;;;;;;4954138;29;19915;-63
2021/12/23 04:02:27;;;;;;;;;;;21.70;35.80;;;;;;4956179;29;20291;-63
2021/12/23 04:04:53;;;;;;;;;;;21.70;35.70;;;;;;4944221;29;19923;-63
2021/12/23 04:07:18;;;;;;;;;;;21.60;35.70;;;;;;4947365;29;19915;-63
2021/12/23 04:09:44;;;;;;;;;;;21.60;35.70;;;;;;4954145;29;19915;-63
2021/12/23 04:12:09;;;;;;;;;;;21.70;35.70;;;;;;4938124;29;20342;-63
2021/12/23 04:14:35;;;;;;;;;;;21.70;35.80;;;;;;4947642;28;19919;-63
2021/12/23 04:17:00;;;;;;;;;;;21.70;35.70;;;;;;4956947;29;20001;-63
2021/12/23 04:19:30;;;;;;;;;;;21.70;35.70;;;;;;4956908;29;19921;-63
2021/12/23 04:21:57;;;;;;;;;;;21.70;35.70;;;;;;4954019;29;19921;-63
2021/12/23 04:24:22;;;;;;;;;;;21.70;35.70;;;;;;4956248;29;20338;-62
2021/12/23 04:26:48;;;;;;;;;;;21.60;35.70;;;;;;4943607;29;19911;-63
2021/12/23 04:29:13;;;;;;;;;;;21.50;35.80;;;;;;4956429;29;19918;-63
2021/12/23 04:31:39;;;;;;;;;;;21.40;35.90;;;;;;4956424;29;19915;-63
2021/12/23 04:34:04;;;;;;;;;;;21.30;36.10;;;;;;4956598;29;19915;-63
2021/12/23 04:36:29;;;;;;;;;;;21.20;36.30;;;;;;4956040;29;19961;-63
2021/12/23 04:38:55;;;;;;;;;;;21.10;36.40;;;;;;4955787;28;19929;-63
2021/12/23 04:41:21;;;;;;;;;;;21.10;36.50;;;;;;4956414;28;20393;-62
2021/12/23 04:43:46;;;;;;;;;;;21.10;36.50;;;;;;4987291;28;19921;-62
2021/12/23 04:46:12;;;;;;;;;;;21.10;36.40;;;;;;4955850;29;19914;-63
2021/12/23 04:48:37;;;;;;;;;;;21.20;36.40;;;;;;4957292;28;19966;-63
2021/12/23 04:51:02;;;;;;;;;;;21.30;36.20;;;;;;4955010;29;19914;-63
2021/12/23 04:53:28;;;;;;;;;;;21.40;36.10;;;;;;4956273;29;19930;-63
2021/12/23 04:55:53;;;;;;;;;;;21.50;36.10;;;;;;4956636;28;19949;-63
2021/12/23 04:58:19;;;;;;;;;;;21.50;35.90;;;;;;4977199;28;19915;-63
2021/12/23 05:00:48;;;;;;;;;;;21.60;35.80;;;;;;4949204;29;19922;-63
2021/12/23 05:03:14;;;;;;;;;;;21.60;35.70;;;;;;4943540;28;19921;-63
2021/12/23 05:05:40;;;;;;;;;;;21.60;35.60;;;;;;4946549;29;19929;-63
2021/12/23 05:08:06;;;;;;;;;;;21.60;35.60;;;;;;4944985;29;19926;-63
2021/12/23 05:10:32;;;;;;;;;;;21.60;35.80;;;;;;4949387;28;19914;-63
2021/12/23 05:12:57;;;;;;;;;;;21.60;35.70;;;;;;4955610;29;19961;-62
2021/12/23 05:15:23;;;;;;;;;;;21.60;35.60;;;;;;4955316;29;20361;-62
2021/12/23 05:17:48;;;;;;;;;;;21.60;35.60;;;;;;4956081;29;20283;-62
2021/12/23 05:20:15;;;;;;;;;;;21.60;35.60;;;;;;4953582;29;20302;-62
2021/12/23 05:22:40;;;;;;;;;;;21.60;35.70;;;;;;4955224;29;19923;-62
2021/12/23 05:25:06;;;;;;;;;;;21.60;35.60;;;;;;4953913;29;20490;-62
2021/12/23 05:27:31;;;;;;;;;;;21.60;35.70;;;;;;4985141;28;19994;-63
2021/12/23 05:29:57;;;;;;;;;;;21.60;35.70;;;;;;4952551;29;20378;-63
2021/12/23 05:32:22;;;;;;;;;;;21.60;35.60;;;;;;4975025;28;20290;-61
2021/12/23 05:34:48;;;;;;;;;;;21.60;35.60;;;;;;4954902;29;19911;-62
2021/12/23 05:37:13;;;;;;;;;;;21.70;35.70;;;;;;4950118;29;19915;-63
2021/12/23 05:39:38;;;;;;;;;;;21.60;35.50;;;;;;4954238;29;20430;-63
2021/12/23 05:42:04;;;;;;;;;;;21.60;35.40;;;;;;4952387;28;20398;-62
2021/12/23 05:44:30;;;;;;;;;;;21.60;35.40;;;;;;4955646;29;20314;-62
2021/12/23 05:46:55;;;;;;;;;;;21.70;35.40;;;;;;4947699;29;19915;-62
2021/12/23 05:49:21;;;;;;;;;;;21.70;35.50;;;;;;4950282;28;19918;-63
2021/12/23 05:51:46;;;;;;;;;;;21.70;35.50;;;;;;4947013;29;19986;-62
2021/12/23 05:54:12;;;;;;;;;;;21.70;35.60;;;;;;4955307;29;20386;-62
2021/12/23 05:56:37;;;;;;;;;;;21.70;35.60;;;;;;4949246;29;20009;-63
2021/12/23 05:59:03;;;;;;;;;;;21.70;36.20;;;;;;4967114;28;19910;-63
2021/12/23 06:01:28;;;;;;;;;;;21.70;35.60;;;;;;4937279;29;19915;-63
2021/12/23 06:03:54;;;;;;;;;;;21.70;35.60;;;;;;4955361;29;19918;-63
2021/12/23 06:06:19;;;;;;;;;;;21.70;35.70;;;;;;4946197;29;19937;-63
2021/12/23 06:08:44;;;;;;;;;;;21.60;35.60;;;;;;4955100;29;19922;-63
2021/12/23 06:11:10;;;;;;;;;;;21.70;35.70;;;;;;4953502;29;19933;-63
2021/12/23 06:13:35;;;;;;;;;;;21.70;35.50;;;;;;4936891;29;20299;-63
2021/12/23 06:16:01;;;;;;;;;;;21.70;35.60;;;;;;4953332;29;19911;-63
2021/12/23 06:18:27;;;;;;;;;;;21.70;35.60;;;;;;4952080;28;20008;-63
2021/12/23 06:20:52;;;;;;;;;;;21.70;35.60;;;;;;4951617;29;19931;-63
2021/12/23 06:23:17;;;;;;;;;;;21.70;35.60;;;;;;4937430;29;19918;-63
2021/12/23 06:25:43;;;;;;;;;;;21.70;35.60;;;;;;4936064;29;20009;-63
2021/12/23 06:28:08;;;;;;;;;;;21.60;35.40;;;;;;4954772;29;19914;-63
2021/12/23 06:30:34;;;;;;;;;;;21.60;35.50;;;;;;4952876;29;20774;-63
2021/12/23 06:32:59;;;;;;;;;;;21.60;35.50;;;;;;4948952;29;20012;-63
2021/12/23 06:35:26;;;;;;;;;;;21.60;35.50;;;;;;4952212;29;19954;-63
2021/12/23 06:37:51;;;;;;;;;;;21.60;35.50;;;;;;4951458;28;19911;-62
2021/12/23 06:40:17;;;;;;;;;;;21.70;35.60;;;;;;4940192;29;20359;-62
2021/12/23 06:42:42;;;;;;;;;;;21.70;35.50;;;;;;4935685;29;19915;-62
2021/12/23 06:45:08;;;;;;;;;;;21.70;35.50;;;;;;4942877;28;20033;-63
2021/12/23 06:47:34;;;;;;;;;;;21.60;35.40;;;;;;4981260;28;20430;-63
2021/12/23 06:49:59;;;;;;;;;;;21.70;35.40;;;;;;4953835;28;19990;-63
2021/12/23 06:52:25;;;;;;;;;;;21.70;35.50;;;;;;4970050;28;19918;-63
2021/12/23 06:54:53;;;;;;;;;;;21.70;35.50;;;;;;4935079;29;19915;-63
2021/12/23 06:57:19;;;;;;;;;;;21.70;35.40;;;;;;4953079;28;19921;-63
2021/12/23 06:59:45;;;;;;;;;;;21.70;35.30;;;;;;4954081;28;20322;-63
2021/12/23 07:02:10;;;;;;;;;;;21.70;35.30;;;;;;4951923;28;19973;-63
2021/12/23 07:04:36;;;;;;;;;;;21.70;35.20;;;;;;4984671;28;19918;-63
2021/12/23 07:07:10;;;;;;;;;;;21.70;35.20;;;;;;4946976;29;19969;-63
2021/12/23 07:09:36;;;;;;;;;;;21.80;35.20;;;;;;4953027;29;20009;-62
2021/12/23 07:12:02;;;;;;;;;;;21.70;35.80;;;;;;4938133;28;20383;-62
2021/12/23 07:14:27;;;;;;;;;;;21.70;35.10;;;;;;4972883;28;19918;-63
2021/12/23 07:16:53;;;;;;;;;;;21.70;35.10;;;;;;4949010;29;19915;-63
2021/12/23 07:19:18;;;;;;;;;;;21.70;35.20;;;;;;4952601;29;20001;-63
2021/12/23 07:21:43;;;;;;;;;;;21.70;35.40;;;;;;4934539;29;19982;-62
2021/12/23 07:24:09;;;;;;;;;;;21.70;35.30;;;;;;4952677;28;19987;-62
2021/12/23 07:26:34;;;;;;;;;;;21.70;35.40;;;;;;4953750;29;19915;-62
2021/12/23 07:29:00;;;;;;;;;;;21.70;35.50;;;;;;4939981;29;19955;-62
2021/12/23 07:31:25;;;;;;;;;;;21.70;35.50;;;;;;4935148;29;19911;-62
2021/12/23 07:33:51;;;;;;;;;;;21.70;35.50;;;;;;4946267;29;19915;-62
2021/12/23 07:36:17;;;;;;;;;;;21.70;35.40;;;;;;4953350;29;19911;-62
2021/12/23 07:38:42;;;;;;;;;;;21.70;35.40;;;;;;4952487;29;19920;-62
2021/12/23 07:41:08;;;;;;;;;;;21.70;35.40;;;;;;4953721;29;19911;-62
2021/12/23 07:46:02;;;;;;;;;;;21.70;35.40;;;;;;4934759;29;20029;-62
2021/12/23 07:48:28;;;;;;;;;;;21.70;35.40;;;;;;4976957;28;19969;-63
2021/12/23 07:50:54;;;;;;;;;;;21.70;35.40;;;;;;4953610;29;20383;-63
2021/12/23 07:53:19;;;;;;;;;;;21.70;35.40;;;;;;4945167;28;19950;-63
2021/12/23 07:55:44;;;;;;;;;;;21.70;35.30;;;;;;4934600;29;20374;-63
2021/12/23 07:58:10;;;;;;;;;;;21.70;35.30;;;;;;4945416;29;19923;-63
2021/12/23 08:00:35;;;;;;;;;;;21.70;35.20;;;;;;4953045;29;19915;-63
2021/12/23 08:03:01;;;;;;;;;;;21.70;35.20;;;;;;4968289;28;20379;-63
2021/12/23 08:05:27;;;;;;;;;;;21.70;35.30;;;;;;4949951;28;19941;-63
2021/12/23 08:07:54;;;;;;;;;;;21.70;35.30;;;;;;4983298;28;20013;-63
2021/12/23 08:10:19;;;;;;;;;;;21.70;35.30;;;;;;4950400;29;19915;-63
2021/12/23 08:12:45;;;;;;;;;;;21.70;35.40;;;;;;4939326;29;19942;-63
2021/12/23 08:15:10;;;;;;;;;;;21.70;35.30;;;;;;4951487;29;20001;-63
2021/12/23 08:17:36;;;;;;;;;;;21.70;35.30;;;;;;4951862;29;19915;-63
2021/12/23 08:20:02;;;;;;;;;;;21.80;35.30;;;;;;4968252;28;19970;-63
2021/12/23 08:22:27;;;;;;;;;;;21.70;35.30;;;;;;4969810;28;19921;-63
2021/12/23 08:24:53;;;;;;;;;;;21.70;35.40;;;;;;4955067;29;20321;-63
2021/12/23 08:27:20;;;;;;;;;;;21.70;35.40;;;;;;4945048;29;20334;-63
2021/12/23 08:29:45;;;;;;;;;;;21.80;35.40;;;;;;4956703;29;20019;-63
2021/12/23 08:32:11;;;;;;;;;;;21.70;35.40;;;;;;4966310;28;19914;-62
2021/12/23 08:34:37;;;;;;;;;;;21.70;35.40;;;;;;4938123;29;20331;-63
2021/12/23 08:37:06;;;;;;;;;;;21.70;35.30;;;;;;4938734;28;20318;-63
2021/12/23 08:39:32;;;;;;;;;;;21.80;35.40;;;;;;4956484;28;20342;-63
2021/12/23 08:41:57;;;;;;;;;;;21.80;35.30;;;;;;4952269;28;20083;-63
2021/12/23 08:44:23;;;;;;;;;;;21.80;35.30;;;;;;4955749;28;19918;-62
2021/12/23 08:46:48;;;;;;;;;;;21.70;35.30;;;;;;4939380;29;19915;-62
2021/12/23 08:49:14;;;;;;;;;;;21.80;35.40;;;;;;4956586;29;20009;-62
2021/12/23 08:51:41;;;;;;;;;;;21.80;35.40;;;;;;4945445;29;19996;-62
2021/12/23 08:54:06;;;;;;;;;;;21.80;35.40;;;;;;4956516;28;19921;-63
2021/12/23 08:56:32;;;;;;;;;;;21.80;35.40;;;;;;4956389;29;20308;-63
2021/12/23 08:58:57;;;;;;;;;;;21.70;35.20;;;;;;4955641;29;20288;-62
2021/12/23 09:01:23;;;;;;;;;;;21.80;35.40;;;;;;4954459;29;19954;-62
2021/12/23 09:03:48;;;;;;;;;;;21.80;35.40;;;;;;4938090;29;19911;-63
2021/12/23 09:06:14;;;;;;;;;;;21.80;35.40;;;;;;4976846;28;20401;-63
2021/12/23 09:08:39;;;;;;;;;;;21.80;35.40;;;;;;4950577;29;20016;-63
2021/12/23 09:11:04;;;;;;;;;;;21.70;35.30;;;;;;4956044;29;19921;-63
2021/12/23 09:13:30;;;;;;;;;;;21.80;35.40;;;;;;4979143;28;19970;-63
2021/12/23 09:15:56;;;;;;;;;;;21.80;35.50;;;;;;4977672;28;20368;-62
2021/12/23 09:18:22;;;;;;;;;;;21.80;35.40;;;;;;4971794;28;20362;-62
2021/12/23 09:20:47;;;;;;;;;;;21.70;35.40;;;;;;4948451;29;20290;-63
2021/12/23 09:23:13;;;;;;;;;;;21.80;35.50;;;;;;4967289;28;20013;-63
2021/12/23 09:25:38;;;;;;;;;;;21.70;35.40;;;;;;4948987;29;20379;-63
2021/12/23 09:33:14;;;;;;;;;;;21.70;35.50;;;;;;4953133;29;19977;-63
2021/12/23 09:35:40;;;;;;;;;;;21.70;35.60;;;;;;4964635;28;19930;-63
2021/12/23 09:38:06;;;;;;;;;;;21.70;35.50;;;;;;4954064;28;19918;-62
2021/12/23 09:40:33;;;;;;;;;;;21.70;35.50;;;;;;4952348;28;19915;-63
2021/12/23 09:42:59;;;;;;;;;;;21.70;35.50;;;;;;4981661;28;19918;-62
2021/12/23 09:45:25;;;;;;;;;;;21.70;35.60;;;;;;4980405;28;19926;-63
2021/12/23 09:47:50;;;;;;;;;;;21.70;35.60;;;;;;4952708;29;20406;-63
2021/12/23 09:50:17;;;;;;;;;;;21.70;35.60;;;;;;4954749;29;20287;-63
2021/12/23 09:52:44;;;;;;;;;;;21.70;35.50;;;;;;4970000;28;19965;-63
2021/12/23 09:55:10;;;;;;;;;;;21.70;35.40;;;;;;4955129;28;20225;-63
2021/12/23 09:57:35;;;;;;;;;;;21.80;35.40;;;;;;4955113;28;19970;-63
2021/12/23 10:00:01;;;;;;;;;;;21.80;35.40;;;;;;4955031;29;19915;-63
2021/12/23 10:02:26;;;;;;;;;;;21.80;35.40;;;;;;4955455;29;20326;-63
2021/12/23 10:04:51;;;;;;;;;;;21.80;35.40;;;;;;4968955;28;19925;-63
2021/12/23 10:07:18;;;;;;;;;;;21.80;35.40;;;;;;4955288;29;19946;-62
2021/12/23 10:10:06;;;;;;;;;;;21.80;35.20;;;;;;4985741;28;19925;-62
2021/12/23 10:31:52;;;;;;;;;;;21.90;35.20;;;;;;4974982;28;20017;-63
2021/12/23 10:37:17;;;;;;;;;;;21.90;35.20;;;;;;4951318;28;19911;-63
2021/12/23 10:39:47;;;;;;;;;;;21.90;35.20;;;;;;4966091;28;19915;-63
2021/12/23 10:42:14;;;;;;;;;;;21.90;35.30;;;;;;4969195;28;20005;-63
2021/12/23 10:44:40;;;;;;;;;;;21.90;35.20;;;;;;4965957;28;19922;-62
2021/12/23 10:47:07;;;;;;;;;;;22.00;35.20;;;;;;4943931;29;19915;-62
2021/12/23 10:49:49;;;;;;;;;;;22.00;35.20;;;;;;4954465;28;19925;-63
2021/12/23 10:52:18;;;;;;;;;;;22.00;35.10;;;;;;4953043;29;19915;-63
2021/12/23 11:00:10;;;;;;;;;;;22.00;35.10;;;;;;4945299;28;19922;-62
2021/12/23 11:02:37;;;;;;;;;;;22.00;35.10;;;;;;4936220;28;19911;-62
2021/12/23 11:05:17;;;;;;;;;;;22.00;35.10;;;;;;4978607;28;19923;-63
2021/12/23 11:10:54;;;;;;;;;;;22.00;35.30;;;;;;4919923;29;20363;-62
2021/12/23 11:27:46;;;;;;;;;;;22.10;35.10;;;;;;4950233;29;20378;-62
2021/12/23 11:38:31;;;;;;;;;;;21.90;33.90;;;;;;4959616;28;20365;-61
2021/12/23 11:41:01;;;;;;;;;;;22.00;34.10;;;;;;4952205;28;19914;-62
2021/12/23 11:43:31;;;;;;;;;;;22.00;34.10;;;;;;4949360;29;19915;-62
2021/12/23 11:46:01;;;;;;;;;;;22.10;34.20;;;;;;4944938;29;19921;-63
2021/12/23 11:48:26;;;;;;;;;;;22.10;34.30;;;;;;4972213;28;19918;-62
2021/12/23 11:51:06;;;;;;;;;;;22.10;34.20;;;;;;4955136;29;19921;-62
2021/12/23 11:53:32;;;;;;;;;;;22.10;34.20;;;;;;4963398;28;19927;-62
2021/12/23 11:55:58;;;;;;;;;;;22.10;34.30;;;;;;4987295;28;19915;-61
2021/12/23 11:58:24;;;;;;;;;;;22.10;34.50;;;;;;4983626;28;19978;-62
2021/12/23 12:01:19;;;;;;;;;;;22.10;34.50;;;;;;4986709;28;20592;-62
2021/12/23 12:03:51;;;;;;;;;;;22.20;34.60;;;;;;4947168;28;19914;-62
2021/12/23 12:06:18;;;;;;;;;;;22.20;34.60;;;;;;4948412;29;19969;-62
2021/12/23 12:08:44;;;;;;;;;;;22.20;34.60;;;;;;4955776;28;20025;-61
2021/12/23 12:11:13;;;;;;;;;;;22.20;34.60;;;;;;4986392;28;20617;-61
2021/12/23 12:13:38;;;;;;;;;;;22.20;34.70;;;;;;4955489;28;19915;-63
2021/12/23 12:16:04;;;;;;;;;;;22.20;34.80;;;;;;4955419;29;19994;-62
2021/12/23 12:18:29;;;;;;;;;;;22.20;34.90;;;;;;4986102;28;19915;-62
2021/12/23 12:21:02;;;;;;;;;;;22.20;34.80;;;;;;4975037;28;20013;-62
2021/12/23 12:23:31;;;;;;;;;;;22.20;34.80;;;;;;4956576;29;20252;-62
2021/12/23 12:26:16;;;;;;;;;;;22.20;34.70;;;;;;4955899;29;19914;-62
2021/12/23 12:28:43;;;;;;;;;;;22.20;34.80;;;;;;4953514;28;19925;-62
2021/12/23 12:31:19;;;;;;;;;;;22.20;34.80;;;;;;4955531;28;19969;-62
2021/12/23 12:33:55;;;;;;;;;;;22.20;34.80;;;;;;4955638;28;20386;-63
2021/12/23 12:36:21;;;;;;;;;;;22.20;34.80;;;;;;5002125;28;19941;-62
2021/12/23 12:38:48;;;;;;;;;;;22.20;34.80;;;;;;4956295;28;20410;-62
2021/12/23 12:41:18;;;;;;;;;;;22.20;34.70;;;;;;4985650;28;19915;-61
2021/12/23 12:43:47;;;;;;;;;;;22.20;34.70;;;;;;4955062;28;20002;-62
2021/12/23 12:46:13;;;;;;;;;;;22.20;34.70;;;;;;4942813;28;19925;-62
2021/12/23 12:48:57;;;;;;;;;;;22.20;34.60;;;;;;4953614;28;19927;-62
2021/12/23 12:51:26;;;;;;;;;;;22.30;34.80;;;;;;4953662;29;19910;-61
2021/12/23 12:53:52;;;;;;;;;;;22.30;34.80;;;;;;4955339;28;20400;-62
2021/12/23 12:56:20;;;;;;;;;;;22.20;34.80;;;;;;4955386;28;19914;-61
2021/12/23 12:58:46;;;;;;;;;;;22.30;34.90;;;;;;4986014;28;20434;-61
2021/12/23 13:01:11;;;;;;;;;;;22.30;34.90;;;;;;4985245;28;19997;-61
2021/12/23 13:03:50;;;;;;;;;;;22.30;34.90;;;;;;4954236;29;20013;-62
2021/12/23 13:06:18;;;;;;;;;;;22.30;34.90;;;;;;4983835;28;20014;-62
2021/12/23 13:08:44;;;;;;;;;;;22.30;34.90;;;;;;4952074;28;19922;-62
2021/12/23 13:11:12;;;;;;;;;;;22.30;35.00;;;;;;4954878;29;19957;-63
2021/12/23 13:13:42;;;;;;;;;;;22.30;35.00;;;;;;4955472;28;19914;-62
2021/12/23 13:16:20;;;;;;;;;;;22.30;35.10;;;;;;4953907;28;19915;-61
2021/12/23 13:18:46;;;;;;;;;;;22.30;35.00;;;;;;4955946;28;19915;-61
2021/12/23 13:21:13;;;;;;;;;;;22.30;35.00;;;;;;4951891;28;20010;-61
2021/12/23 13:23:43;;;;;;;;;;;22.30;35.20;;;;;;4983064;28;20399;-62
2021/12/23 13:26:15;;;;;;;;;;;22.30;34.90;;;;;;4957711;28;19914;-62
2021/12/23 13:28:45;;;;;;;;;;;22.40;35.00;;;;;;4954112;28;19922;-62
2021/12/23 13:31:16;;;;;;;;;;;22.30;34.90;;;;;;4953506;28;19926;-62
2021/12/23 13:33:45;;;;;;;;;;;22.30;34.90;;;;;;4953615;28;19915;-62
2021/12/23 13:36:15;;;;;;;;;;;22.30;35.00;;;;;;4984781;28;19929;-62
2021/12/23 13:38:42;;;;;;;;;;;22.40;35.10;;;;;;4979263;28;19946;-63
2021/12/23 13:41:27;;;;;;;;;;;22.30;35.10;;;;;;4953420;28;19920;-63
2021/12/23 13:43:53;;;;;;;;;;;22.30;35.10;;;;;;4945233;29;19921;-64
2021/12/23 13:46:19;;;;;;;;;;;22.40;35.30;;;;;;4984788;28;20286;-62
2021/12/23 13:48:48;;;;;;;;;;;22.40;35.30;;;;;;4954326;29;19923;-63
2021/12/23 13:51:14;;;;;;;;;;;22.40;35.30;;;;;;4952350;29;20407;-64
2021/12/23 13:53:39;;;;;;;;;;;22.40;35.30;;;;;;4986057;28;19957;-61
2021/12/23 13:56:14;;;;;;;;;;;22.40;35.20;;;;;;4954308;29;19919;-62
2021/12/23 13:58:39;;;;;;;;;;;22.40;35.90;;;;;;4954624;29;20029;-61
2021/12/23 14:01:05;;;;;;;;;;;22.30;35.40;;;;;;4962680;28;20005;-62
2021/12/23 14:03:30;;;;;;;;;;;22.40;35.40;;;;;;4959657;28;20407;-62
2021/12/23 14:05:56;;;;;;;;;;;22.40;35.40;;;;;;4949365;29;19919;-62
2021/12/23 14:08:21;;;;;;;;;;;22.40;35.40;;;;;;4985318;28;19954;-62
2021/12/23 14:10:47;;;;;;;;;;;22.40;35.40;;;;;;4957259;28;19997;-61
2021/12/23 14:13:16;;;;;;;;;;;22.40;35.40;;;;;;4957131;28;19915;-60
2021/12/23 14:15:45;;;;;;;;;;;22.40;35.40;;;;;;4951205;29;20363;-61
2021/12/23 14:18:17;;;;;;;;;;;22.40;35.40;;;;;;4951847;28;20466;-61
2021/12/23 14:23:27;;;;;;;;;;;22.40;35.30;;;;;;4952512;29;19969;-62
2021/12/23 14:25:53;;;;;;;;;;;22.40;35.30;;;;;;4951210;29;19941;-62
2021/12/23 14:28:20;;;;;;;;;;;22.40;35.30;;;;;;4953125;28;19925;-62
2021/12/23 14:30:47;;;;;;;;;;;22.40;35.30;;;;;;4953193;28;19928;-62
2021/12/23 14:33:14;;;;;;;;;;;22.40;35.10;;;;;;4953213;28;20251;-62
2021/12/23 14:35:40;;;;;;;;;;;22.40;35.20;;;;;;4983673;28;19915;-62
2021/12/23 14:38:05;;;;;;;;;;;22.40;35.10;;;;;;4948019;29;19925;-62
2021/12/23 14:40:30;;;;;;;;;;;22.40;35.00;;;;;;4953996;29;20387;-62
2021/12/23 14:42:59;;;;;;;;;;;22.40;35.00;;;;;;4953173;28;19993;-62
2021/12/23 14:45:25;;;;;;;;;;;22.40;35.10;;;;;;4955250;28;20013;-62
2021/12/23 14:47:57;;;;;;;;;;;22.40;35.10;;;;;;4953981;29;19962;-62
2021/12/23 14:50:25;;;;;;;;;;;22.40;35.10;;;;;;4950529;28;19914;-62
2021/12/23 14:52:53;;;;;;;;;;;22.40;35.10;;;;;;4952589;28;19918;-62
2021/12/23 14:55:18;;;;;;;;;;;22.40;35.10;;;;;;4952882;28;19914;-63
2021/12/23 14:57:45;;;;;;;;;;;22.40;35.20;;;;;;4953073;29;19925;-62
2021/12/23 15:00:12;;;;;;;;;;;22.40;35.20;;;;;;4956806;28;19997;-62
2021/12/23 15:02:38;;;;;;;;;;;22.40;35.30;;;;;;4961902;28;19921;-61
2021/12/23 15:05:05;;;;;;;;;;;22.40;35.30;;;;;;4950191;29;19922;-62
2021/12/23 15:07:45;;;;;;;;;;;22.40;35.20;;;;;;4952244;28;20291;-62
2021/12/23 15:10:11;;;;;;;;;;;22.40;35.10;;;;;;4950560;29;20049;-62
2021/12/23 15:12:36;;;;;;;;;;;22.40;35.30;;;;;;4968022;28;20017;-63
2021/12/23 15:15:04;;;;;;;;;;;22.40;35.30;;;;;;4949434;29;20103;-62
2021/12/23 15:17:33;;;;;;;;;;;22.40;35.30;;;;;;4952523;28;19919;-62
2021/12/23 15:19:59;;;;;;;;;;;22.40;35.20;;;;;;4980455;28;19915;-62
2021/12/23 15:22:25;;;;;;;;;;;22.50;35.20;;;;;;4951001;28;19922;-61
2021/12/23 15:25:01;;;;;;;;;;;22.50;35.20;;;;;;4954258;28;20287;-62